createdAt,value
2022-11-02T00:01:54.241Z,32.27
2022-11-02T00:04:21.088Z,30.97
2022-11-02T00:06:47.843Z,31.23
2022-11-02T00:09:14.601Z,31.90
2022-11-02T00:11:42.117Z,32.17
2022-11-02T00:14:09.184Z,31.93
2022-11-02T00:16:38.815Z,28.67
2022-11-02T00:19:06.475Z,28.97
2022-11-02T00:21:34.243Z,27.97
2022-11-02T00:24:01.890Z,27.97
2022-11-02T00:26:30.242Z,28.10
2022-11-02T00:28:58.474Z,27.47
2022-11-02T00:31:25.850Z,28.37
2022-11-02T00:33:52.799Z,28.00
2022-11-02T00:36:19.934Z,27.37
2022-11-02T00:38:46.751Z,27.20
2022-11-02T00:41:13.516Z,27.47
2022-11-02T00:43:40.291Z,27.80
2022-11-02T00:46:07.173Z,28.23
2022-11-02T00:48:33.916Z,27.87
2022-11-02T00:51:00.670Z,28.53
2022-11-02T00:53:28.143Z,29.70
2022-11-02T00:55:55.119Z,30.13
2022-11-02T00:58:21.927Z,30.47
2022-11-02T01:00:48.746Z,30.43
2022-11-02T01:03:15.786Z,31.73
2022-11-02T01:05:42.574Z,30.23
2022-11-02T01:08:09.658Z,31.87
2022-11-02T01:10:36.444Z,29.90
2022-11-02T01:13:03.307Z,31.23
2022-11-02T01:15:30.073Z,30.57
2022-11-02T01:17:57.313Z,30.77
2022-11-02T01:20:24.194Z,31.00
2022-11-02T01:22:51.002Z,30.70
2022-11-02T01:25:21.676Z,30.73
2022-11-02T01:27:48.725Z,32.03
2022-11-02T01:30:15.558Z,30.97
2022-11-02T01:32:42.589Z,31.07
2022-11-02T01:35:10.427Z,32.33
2022-11-02T01:37:37.437Z,32.50
2022-11-02T01:40:04.626Z,32.53
2022-11-02T01:42:31.421Z,32.40
2022-11-02T01:44:58.349Z,32.53
2022-11-02T01:47:31.949Z,33.47
2022-11-02T01:50:13.215Z,33.47
2022-11-02T01:52:41.334Z,34.40
2022-11-02T01:55:16.741Z,34.70
2022-11-02T01:57:47.889Z,33.40
2022-11-02T02:00:16.734Z,32.10
2022-11-02T02:03:01.106Z,33.00
2022-11-02T02:05:29.690Z,32.70
2022-11-02T02:07:57.055Z,32.50
2022-11-02T02:10:24.342Z,33.67
2022-11-02T02:12:51.251Z,31.17
2022-11-02T02:15:18.386Z,31.97
2022-11-02T02:17:52.825Z,31.03
2022-11-02T02:20:34.559Z,32.20
2022-11-02T02:23:07.667Z,32.73
2022-11-02T02:25:53.015Z,32.70
2022-11-02T02:28:41.512Z,31.97
2022-11-02T02:31:40.815Z,32.90
2022-11-02T02:34:47.316Z,33.17
2022-11-02T02:37:18.952Z,32.53
2022-11-02T02:40:00.770Z,35.17
2022-11-02T02:42:35.692Z,33.83
2022-11-02T02:45:18.420Z,34.87
2022-11-02T02:47:54.792Z,34.73
2022-11-02T02:50:26.784Z,34.07
2022-11-02T02:52:55.311Z,37.57
2022-11-02T02:55:26.843Z,37.23
2022-11-02T02:57:56.202Z,37.67
2022-11-02T03:00:23.026Z,37.17
2022-11-02T03:03:03.603Z,37.60
2022-11-02T03:05:32.034Z,38.90
2022-11-02T03:08:05.087Z,39.10
2022-11-02T03:10:37.119Z,37.60
2022-11-02T03:13:18.847Z,40.50
2022-11-02T03:16:13.487Z,39.37
2022-11-02T03:18:53.958Z,40.00
2022-11-02T03:21:30.178Z,39.47
2022-11-02T03:24:06.423Z,42.80
2022-11-02T03:26:53.313Z,41.17
2022-11-02T03:29:42.901Z,42.87
2022-11-02T03:32:17.899Z,42.53
2022-11-02T03:34:55.118Z,43.93
2022-11-02T03:37:27.491Z,44.83
2022-11-02T03:40:09.186Z,44.10
2022-11-02T03:42:36.992Z,45.60
2022-11-02T03:45:30.130Z,46.27
2022-11-02T03:48:02.442Z,46.50
2022-11-02T03:50:30.051Z,46.57
2022-11-02T03:53:06.380Z,48.40
2022-11-02T03:55:40.955Z,50.37
2022-11-02T03:58:11.442Z,48.67
2022-11-02T04:00:54.592Z,48.60
2022-11-02T04:03:23.701Z,48.40
2022-11-02T04:05:50.679Z,48.63
2022-11-02T04:08:29.431Z,46.90
2022-11-02T04:11:15.190Z,48.80
2022-11-02T04:14:00.368Z,47.20
2022-11-02T04:16:28.226Z,50.40
2022-11-02T04:19:14.343Z,50.30
2022-11-02T04:22:01.706Z,51.00
2022-11-02T04:24:47.235Z,49.63
2022-11-02T04:27:18.124Z,52.27
2022-11-02T04:29:47.630Z,52.37
2022-11-02T04:32:14.394Z,52.17
2022-11-02T04:34:41.187Z,52.40
2022-11-02T04:37:28.015Z,53.97
2022-11-02T04:39:54.946Z,56.07
2022-11-02T04:42:21.709Z,54.57
2022-11-02T04:44:48.462Z,52.83
2022-11-02T04:47:15.348Z,54.97
2022-11-02T04:49:42.107Z,54.97
2022-11-02T04:52:09.889Z,55.87
2022-11-02T04:54:38.156Z,56.70
2022-11-02T04:57:05.246Z,54.70
2022-11-02T04:59:32.113Z,55.97
2022-11-02T05:01:59.156Z,57.93
2022-11-02T05:04:26.153Z,59.37
2022-11-02T05:06:53.810Z,56.70
2022-11-02T05:09:23.193Z,57.73
2022-11-02T05:11:49.952Z,59.33
2022-11-02T05:14:16.734Z,57.97
2022-11-02T05:16:43.569Z,55.33
2022-11-02T05:19:11.107Z,57.20
2022-11-02T05:21:38.132Z,56.87
2022-11-02T05:24:05.286Z,55.70
2022-11-02T05:26:32.116Z,55.63
2022-11-02T05:28:58.969Z,57.03
2022-11-02T05:31:25.752Z,60.73
2022-11-02T05:33:52.587Z,58.33
2022-11-02T05:36:19.410Z,57.30
2022-11-02T05:38:46.290Z,57.37
2022-11-02T05:41:13.197Z,59.30
2022-11-02T05:43:40.149Z,60.30
2022-11-02T05:46:06.975Z,58.90
2022-11-02T05:48:34.151Z,61.10
2022-11-02T05:51:03.591Z,60.00
2022-11-02T05:53:33.807Z,61.00
2022-11-02T05:56:01.767Z,58.30
2022-11-02T05:58:29.484Z,60.70
2022-11-02T06:01:00.368Z,58.73
2022-11-02T06:03:27.167Z,60.67
2022-11-02T06:06:05.376Z,57.47
2022-11-02T06:08:36.172Z,58.13
2022-11-02T06:11:11.628Z,58.67
2022-11-02T06:13:39.405Z,57.53
2022-11-02T06:16:11.316Z,58.53
2022-11-02T06:18:39.027Z,55.47
2022-11-02T06:21:06.193Z,54.67
2022-11-02T06:23:33.317Z,56.00
2022-11-02T06:26:00.814Z,55.37
2022-11-02T06:28:29.016Z,54.97
2022-11-02T06:30:56.197Z,53.17
2022-11-02T06:33:23.446Z,51.90
2022-11-02T06:35:55.002Z,52.23
2022-11-02T06:38:22.565Z,51.37
2022-11-02T06:41:15.880Z,52.50
2022-11-02T06:43:42.718Z,51.10
2022-11-02T06:46:09.748Z,50.47
2022-11-02T06:48:36.608Z,51.40
2022-11-02T06:51:05.066Z,46.03
2022-11-02T06:53:35.102Z,48.63
2022-11-02T06:56:01.907Z,45.43
2022-11-02T06:58:29.719Z,45.23
2022-11-02T07:01:07.720Z,43.83
2022-11-02T07:03:35.164Z,40.57
2022-11-02T07:06:03.229Z,38.67
2022-11-02T07:08:30.367Z,35.87
2022-11-02T07:10:57.314Z,36.37
2022-11-02T07:13:27.251Z,37.47
2022-11-02T07:15:57.064Z,34.17
2022-11-02T07:18:26.384Z,34.30
2022-11-02T07:20:53.309Z,31.53
2022-11-02T07:25:45.711Z,29.10
2022-11-02T07:28:12.481Z,29.67
2022-11-02T07:30:39.692Z,29.17
2022-11-02T07:33:06.934Z,28.17
2022-11-02T07:35:34.364Z,28.73
2022-11-02T07:38:03.573Z,27.57
2022-11-02T07:40:31.674Z,26.73
2022-11-02T07:42:59.133Z,27.30
2022-11-02T07:45:26.168Z,25.13
2022-11-02T07:47:53.762Z,24.00
2022-11-02T07:50:25.239Z,25.00
2022-11-02T07:52:54.191Z,25.70
2022-11-02T07:55:24.033Z,25.17
2022-11-02T07:57:57.800Z,26.50
2022-11-02T08:00:27.199Z,26.20
2022-11-02T08:02:55.817Z,24.13
2022-11-02T08:05:23.008Z,25.53
2022-11-02T08:08:05.358Z,22.33
2022-11-02T08:13:26.196Z,22.93
2022-11-02T08:15:54.089Z,23.33
2022-11-02T08:18:24.372Z,23.13
2022-11-02T08:20:52.192Z,24.53
2022-11-02T08:23:20.922Z,24.77
2022-11-02T08:25:50.571Z,25.20
2022-11-02T08:28:31.655Z,24.77
2022-11-02T08:30:59.305Z,24.50
2022-11-02T08:33:26.406Z,23.83
2022-11-02T08:35:53.801Z,22.70
2022-11-02T08:38:23.625Z,24.03
2022-11-02T08:40:50.423Z,22.67
2022-11-02T08:43:23.466Z,23.50
2022-11-02T08:48:37.404Z,24.27
2022-11-02T08:51:05.988Z,23.37
2022-11-02T08:53:32.936Z,24.80
2022-11-02T08:56:06.614Z,24.70
2022-11-02T08:58:33.772Z,24.50
2022-11-02T09:01:00.601Z,24.90
2022-11-02T09:03:28.389Z,24.20
2022-11-02T09:06:00.328Z,24.60
2022-11-02T09:08:28.713Z,25.37
2022-11-02T09:10:59.634Z,26.27
2022-11-02T09:13:30.265Z,26.23
2022-11-02T09:15:59.023Z,26.53
2022-11-02T09:18:26.237Z,26.93
2022-11-02T09:20:53.087Z,26.13
2022-11-02T09:23:21.693Z,24.80
2022-11-02T09:25:49.487Z,25.80
2022-11-02T09:28:19.090Z,23.67
2022-11-02T09:30:46.066Z,23.03
2022-11-02T09:33:13.533Z,22.53
2022-11-02T09:35:43.019Z,23.67
2022-11-02T09:38:10.288Z,21.53
2022-11-02T09:40:52.141Z,21.60
2022-11-02T09:43:56.133Z,21.30
2022-11-02T09:46:43.121Z,21.10
2022-11-02T09:49:17.058Z,21.23
2022-11-02T09:51:49.199Z,20.90
2022-11-02T09:54:28.886Z,21.17
2022-11-02T09:57:00.730Z,18.97
2022-11-02T09:59:28.110Z,19.77
2022-11-02T10:02:19.824Z,19.57
2022-11-02T10:05:05.044Z,19.57
2022-11-02T10:07:34.804Z,18.43
2022-11-02T10:10:37.279Z,19.83
2022-11-02T10:13:21.902Z,18.87
2022-11-02T10:15:55.379Z,23.02
2022-11-02T10:18:30.485Z,21.27
2022-11-02T10:21:04.469Z,21.10
2022-11-02T10:23:37.694Z,21.00
2022-11-02T10:26:05.089Z,20.37
2022-11-02T10:28:39.516Z,21.70
2022-11-02T10:31:36.221Z,20.80
2022-11-02T10:34:18.410Z,20.87
2022-11-02T10:36:47.947Z,22.43
2022-11-02T10:39:17.837Z,20.90
2022-11-02T10:42:03.781Z,20.83
2022-11-02T10:44:52.035Z,19.97
2022-11-02T10:47:20.086Z,20.20
2022-11-02T10:49:58.520Z,19.53
2022-11-02T10:52:29.277Z,20.10
2022-11-02T10:54:57.514Z,19.07
2022-11-02T10:57:25.864Z,19.13
2022-11-02T11:00:23.058Z,18.67
2022-11-02T11:03:15.301Z,18.47
2022-11-02T11:05:51.563Z,17.83
2022-11-02T11:08:39.838Z,19.30
2022-11-02T11:11:26.258Z,21.07
2022-11-02T11:16:50.199Z,18.80
2022-11-02T11:22:21.166Z,16.47
2022-11-02T11:24:48.019Z,15.87
2022-11-02T11:27:22.915Z,14.60
2022-11-02T11:29:58.446Z,14.00
2022-11-02T11:32:30.683Z,13.50
2022-11-02T11:35:08.005Z,12.27
2022-11-02T11:37:47.212Z,12.07
2022-11-02T11:40:21.246Z,11.37
2022-11-02T11:42:57.526Z,12.07
2022-11-02T11:45:30.698Z,11.03
2022-11-02T11:48:30.679Z,10.97
2022-11-02T11:50:58.032Z,11.63
2022-11-02T11:53:26.450Z,11.43
2022-11-02T11:55:59.786Z,12.00
2022-11-02T11:58:49.647Z,11.53
2022-11-02T12:01:22.743Z,12.77
2022-11-02T12:04:01.612Z,12.93
2022-11-02T12:07:01.880Z,13.23
2022-11-02T12:10:01.236Z,13.00
2022-11-02T12:12:59.758Z,13.33
2022-11-02T12:15:38.662Z,12.40
2022-11-02T12:18:17.758Z,13.63
2022-11-02T12:21:08.273Z,11.87
2022-11-02T12:26:13.433Z,11.90
2022-11-02T12:29:08.046Z,12.43
2022-11-02T12:31:42.082Z,12.80
2022-11-02T12:34:24.771Z,12.17
2022-11-02T12:37:32.762Z,11.47
2022-11-02T12:40:12.205Z,11.63
2022-11-02T12:43:26.917Z,12.40
2022-11-02T12:51:16.025Z,10.90
2022-11-02T12:53:59.771Z,11.57
2022-11-02T12:56:31.031Z,10.63
2022-11-02T12:58:59.782Z,11.03
2022-11-02T13:01:37.667Z,11.27
2022-11-02T13:04:35.524Z,10.70
2022-11-02T13:07:12.129Z,10.60
2022-11-02T13:10:00.604Z,10.80
2022-11-02T13:12:28.684Z,10.43
2022-11-02T13:14:58.001Z,10.60
2022-11-02T13:17:36.906Z,10.80
2022-11-02T13:20:55.236Z,10.33
2022-11-02T13:23:49.241Z,11.67
2022-11-02T13:26:27.955Z,11.97
2022-11-02T13:29:07.838Z,11.47
2022-11-02T13:32:06.613Z,12.10
2022-11-02T13:34:44.213Z,12.33
2022-11-02T13:37:23.092Z,12.40
2022-11-02T13:39:57.682Z,12.37
2022-11-02T13:56:27.847Z,10.83
2022-11-02T13:59:04.891Z,11.60
2022-11-02T14:01:36.595Z,12.17
2022-11-02T14:04:07.614Z,11.37
2022-11-02T14:07:16.047Z,12.37
2022-11-02T14:09:44.854Z,12.17
2022-11-02T14:12:47.982Z,12.10
2022-11-02T14:15:15.493Z,12.73
2022-11-02T14:18:02.192Z,14.13
2022-11-02T14:20:59.442Z,14.67
2022-11-02T14:23:26.227Z,13.43
2022-11-02T14:26:00.805Z,13.40
2022-11-02T14:28:33.365Z,15.07
2022-11-02T14:31:05.707Z,15.07
2022-11-02T14:34:09.888Z,14.57
2022-11-02T14:37:04.689Z,13.70
2022-11-02T14:39:46.634Z,14.60
2022-11-02T14:45:51.325Z,15.83
2022-11-02T14:48:18.471Z,14.97
2022-11-02T14:51:15.729Z,16.30
2022-11-02T14:53:42.855Z,15.60
2022-11-02T14:56:12.795Z,17.17
2022-11-02T14:58:49.205Z,17.17
2022-11-02T15:01:17.894Z,17.20
2022-11-02T15:03:45.624Z,17.07
2022-11-02T15:06:19.157Z,18.37
2022-11-02T15:09:01.121Z,18.07
2022-11-02T15:11:50.021Z,18.53
2022-11-02T15:14:35.666Z,18.10
2022-11-02T15:17:24.280Z,18.13
2022-11-02T15:20:13.960Z,19.87
2022-11-02T15:22:58.671Z,17.90
2022-11-02T15:25:53.100Z,17.47
2022-11-02T15:28:25.291Z,19.30
2022-11-02T15:30:55.704Z,18.63
2022-11-02T15:33:45.962Z,20.17
2022-11-02T15:36:39.914Z,19.30
2022-11-02T15:39:12.719Z,19.97
2022-11-02T15:43:00.222Z,19.70
2022-11-02T15:45:48.526Z,20.37
2022-11-02T15:48:46.702Z,20.37
2022-11-02T15:51:41.513Z,19.83
2022-11-02T15:58:01.023Z,21.27
2022-11-02T16:00:30.630Z,20.20
2022-11-02T16:03:05.864Z,21.97
2022-11-02T16:05:42.217Z,20.83
2022-11-02T16:08:30.752Z,21.07
2022-11-02T16:11:17.449Z,21.93
2022-11-02T16:13:55.932Z,20.47
2022-11-02T16:16:35.838Z,21.53
2022-11-02T16:19:05.682Z,23.13
2022-11-02T16:21:32.684Z,23.57
2022-11-02T16:23:59.538Z,23.67
2022-11-02T16:26:29.849Z,24.27
2022-11-02T16:28:59.624Z,25.40
2022-11-02T16:31:31.256Z,23.63
2022-11-02T16:33:59.383Z,24.20
2022-11-02T16:36:31.473Z,24.27
2022-11-02T16:39:47.558Z,24.67
2022-11-02T16:42:22.610Z,24.67
2022-11-02T16:45:01.173Z,25.80
2022-11-02T16:47:35.113Z,26.13
2022-11-02T16:50:02.799Z,26.57
2022-11-02T16:52:33.651Z,26.10
2022-11-02T16:55:01.100Z,26.30
2022-11-02T16:57:31.294Z,26.70
2022-11-02T17:00:11.444Z,27.50
2022-11-02T17:02:39.569Z,25.60
2022-11-02T17:05:15.850Z,26.83
2022-11-02T17:07:48.210Z,26.80
2022-11-02T17:10:25.487Z,26.90
2022-11-02T17:12:52.678Z,26.73
2022-11-02T17:15:22.677Z,27.03
2022-11-02T17:17:49.520Z,27.77
2022-11-02T17:20:22.098Z,26.73
2022-11-02T17:22:58.937Z,25.33
2022-11-02T17:25:32.012Z,24.17
2022-11-02T17:28:04.563Z,23.40
2022-11-02T17:30:34.620Z,22.70
2022-11-02T17:33:07.893Z,20.93
2022-11-02T17:35:36.102Z,20.20
2022-11-02T17:38:03.404Z,18.97
2022-11-02T17:40:31.899Z,17.93
2022-11-02T17:42:58.954Z,16.97
2022-11-02T17:45:30.160Z,15.60
2022-11-02T17:47:58.831Z,16.50
2022-11-02T17:50:27.376Z,15.47
2022-11-02T17:52:54.991Z,15.50
2022-11-02T17:55:29.787Z,15.70
2022-11-02T17:57:57.583Z,14.23
2022-11-02T18:00:25.747Z,14.13
2022-11-02T18:02:55.528Z,14.20
2022-11-02T18:05:24.085Z,13.03
2022-11-02T18:07:51.337Z,13.70
2022-11-02T18:10:20.113Z,12.40
2022-11-02T18:12:48.147Z,11.87
2022-11-02T18:15:20.620Z,11.00
2022-11-02T18:17:47.778Z,11.70
2022-11-02T18:20:15.763Z,11.50
2022-11-02T18:22:42.817Z,11.43
2022-11-02T18:25:13.564Z,10.97
2022-11-02T18:27:41.028Z,9.97
2022-11-02T18:30:11.793Z,9.90
2022-11-02T18:32:39.574Z,9.53
2022-11-02T18:35:10.240Z,9.13
2022-11-02T18:37:38.453Z,9.43
2022-11-02T18:40:11.456Z,9.10
2022-11-02T18:42:43.067Z,8.90
2022-11-02T18:45:12.959Z,9.43
2022-11-02T18:47:40.032Z,8.90
2022-11-02T18:50:08.220Z,8.97
2022-11-02T18:52:35.118Z,8.53
2022-11-02T18:55:05.394Z,8.93
2022-11-02T18:57:32.819Z,9.17
2022-11-02T19:00:02.354Z,8.97
2022-11-02T19:02:29.734Z,8.67
2022-11-02T19:04:57.193Z,9.13
2022-11-02T19:07:54.691Z,8.93
2022-11-02T19:10:27.279Z,9.00
2022-11-02T19:12:54.136Z,8.43
2022-11-02T19:15:20.981Z,9.03
2022-11-02T19:17:47.882Z,8.23
2022-11-02T19:20:14.861Z,8.50
2022-11-02T19:22:41.617Z,9.47
2022-11-02T19:25:10.594Z,8.03
2022-11-02T19:27:37.573Z,8.13
2022-11-02T19:30:04.785Z,7.70
2022-11-02T19:32:31.620Z,7.97
2022-11-02T19:34:58.393Z,8.00
2022-11-02T19:37:25.971Z,7.97
2022-11-02T19:39:52.817Z,7.30
2022-11-02T19:42:26.446Z,7.13
2022-11-02T19:44:53.611Z,7.00
2022-11-02T19:47:20.801Z,7.10
2022-11-02T19:49:47.605Z,7.07
2022-11-02T19:52:14.364Z,6.93
2022-11-02T19:54:41.132Z,7.30
2022-11-02T19:57:08.222Z,7.10
2022-11-02T19:59:35.022Z,7.53
2022-11-02T20:02:02.143Z,7.10
2022-11-02T20:04:29.041Z,7.43
2022-11-02T20:06:56.013Z,7.10
2022-11-02T20:09:23.061Z,7.47
2022-11-02T20:11:49.891Z,6.90
2022-11-02T20:14:17.719Z,6.80
2022-11-02T20:16:47.322Z,7.50
2022-11-02T20:19:20.943Z,7.53
2022-11-02T20:21:47.759Z,7.27
2022-11-02T20:24:14.581Z,7.23
2022-11-02T20:26:41.605Z,7.03
2022-11-02T20:29:12.208Z,7.27
2022-11-02T20:31:42.501Z,7.80
2022-11-02T20:34:13.277Z,7.27
2022-11-02T20:36:40.084Z,7.17
2022-11-02T20:39:07.549Z,7.37
2022-11-02T20:41:34.482Z,7.03
2022-11-02T20:44:01.340Z,7.13
2022-11-02T20:46:39.998Z,7.60
2022-11-02T20:49:21.209Z,7.87
2022-11-02T20:51:55.648Z,8.10
2022-11-02T20:54:23.047Z,7.70
2022-11-02T20:56:50.638Z,7.97
2022-11-02T20:59:33.534Z,8.63
2022-11-02T21:02:00.549Z,8.73
2022-11-02T21:04:27.451Z,8.37
2022-11-02T21:06:54.323Z,8.90
2022-11-02T21:09:23.771Z,7.93
2022-11-02T21:12:08.971Z,8.70
2022-11-02T21:14:41.703Z,8.23
2022-11-02T21:17:08.750Z,8.20
2022-11-02T21:19:35.586Z,8.60
2022-11-02T21:22:02.399Z,8.07
2022-11-02T21:24:29.546Z,9.27
2022-11-02T21:26:56.598Z,8.73
2022-11-02T21:29:23.610Z,8.67
2022-11-02T21:31:50.523Z,8.87
2022-11-02T21:34:17.346Z,9.30
2022-11-02T21:36:44.114Z,8.73
2022-11-02T21:39:11.004Z,9.07
2022-11-02T21:41:40.246Z,9.93
2022-11-02T21:44:07.948Z,8.70
2022-11-02T21:46:35.512Z,9.20
2022-11-02T21:49:03.015Z,9.30
2022-11-02T21:51:29.906Z,10.00
2022-11-02T21:53:56.960Z,10.20
2022-11-02T21:56:27.799Z,9.90
2022-11-02T21:58:56.186Z,9.80
2022-11-02T22:01:44.882Z,9.50
2022-11-02T22:04:38.543Z,9.23
2022-11-02T22:07:05.333Z,9.50
2022-11-02T22:09:32.345Z,9.00
2022-11-02T22:12:17.485Z,8.63
2022-11-02T22:14:44.921Z,9.27
2022-11-02T22:17:35.494Z,8.93
2022-11-02T22:20:01.745Z,9.23
2022-11-02T22:22:29.228Z,8.93
2022-11-02T22:24:56.228Z,8.83
2022-11-02T22:27:23.615Z,9.37
2022-11-02T22:29:50.654Z,9.00
2022-11-02T22:32:17.456Z,9.30
2022-11-02T22:34:44.325Z,8.63
2022-11-02T22:37:29.479Z,8.57
2022-11-02T22:39:57.372Z,8.33
2022-11-02T22:42:24.270Z,9.03
2022-11-02T22:44:55.327Z,9.00
2022-11-02T22:47:22.208Z,8.87
2022-11-02T22:49:49.796Z,8.73
2022-11-02T22:52:16.571Z,8.47
2022-11-02T22:54:43.758Z,8.80
2022-11-02T22:57:10.592Z,8.30
2022-11-02T22:59:37.406Z,8.37
2022-11-02T23:02:04.632Z,8.17
2022-11-02T23:04:31.444Z,7.87
2022-11-02T23:06:58.405Z,8.90
2022-11-02T23:09:27.549Z,7.50
2022-11-02T23:11:54.500Z,7.23
2022-11-02T23:14:22.581Z,7.17
2022-11-02T23:16:49.421Z,6.80
2022-11-02T23:19:29.802Z,5.83
2022-11-02T23:22:24.711Z,6.63
2022-11-02T23:25:17.336Z,6.00
2022-11-02T23:28:18.848Z,5.80
2022-11-02T23:31:04.236Z,6.03
2022-11-02T23:33:33.772Z,5.47
2022-11-02T23:36:13.673Z,5.30
2022-11-02T23:39:00.293Z,5.33
2022-11-02T23:41:27.764Z,5.33
2022-11-02T23:44:19.149Z,5.00
2022-11-02T23:46:49.048Z,5.20
2022-11-02T23:49:19.023Z,4.90
2022-11-02T23:52:04.498Z,4.53
2022-11-02T23:54:52.694Z,5.00
2022-11-02T23:57:20.995Z,4.80
2022-11-02T23:59:47.989Z,4.70
